createdAt,value
2023-12-20T00:00:14.231Z,14.60
2023-12-20T00:01:16.645Z,14.09
2023-12-20T00:02:19.993Z,12.50
2023-12-20T00:03:22.594Z,13.00
2023-12-20T00:04:24.914Z,18.40
2023-12-20T00:05:27.234Z,13.80
2023-12-20T00:06:30.730Z,16.70
2023-12-20T00:07:33.052Z,13.00
2023-12-20T00:08:35.850Z,13.30
2023-12-20T00:09:38.489Z,13.40
2023-12-20T00:10:41.359Z,15.70
2023-12-20T00:11:43.648Z,16.00
2023-12-20T00:12:45.705Z,14.80
2023-12-20T00:13:51.686Z,15.50
2023-12-20T00:14:52.572Z,14.50
2023-12-20T00:15:54.974Z,17.00
2023-12-20T00:16:57.606Z,13.20
2023-12-20T00:18:00.040Z,14.00
2023-12-20T00:19:02.494Z,11.00
2023-12-20T00:20:06.874Z,14.80
2023-12-20T00:21:09.247Z,14.50
2023-12-20T00:22:11.445Z,14.30
2023-12-20T00:23:13.777Z,13.70
2023-12-20T00:24:16.991Z,15.50
2023-12-20T00:25:19.252Z,9.00
2023-12-20T00:26:21.828Z,15.10
2023-12-20T00:27:24.430Z,16.90
2023-12-20T00:28:26.720Z,13.30
2023-12-20T00:29:28.913Z,15.50
2023-12-20T00:30:31.169Z,13.56
2023-12-20T00:31:33.493Z,14.20
2023-12-20T00:32:36.541Z,14.30
2023-12-20T00:33:40.435Z,15.80
2023-12-20T00:34:43.389Z,14.20
2023-12-20T00:35:45.894Z,15.90
2023-12-20T00:36:50.013Z,15.20
2023-12-20T00:37:52.617Z,17.20
2023-12-20T00:38:54.673Z,15.20
2023-12-20T00:40:03.006Z,15.40
2023-12-20T00:41:05.395Z,15.00
2023-12-20T00:42:08.345Z,17.00
2023-12-20T00:43:11.117Z,15.90
2023-12-20T00:44:13.599Z,14.60
2023-12-20T00:45:16.065Z,15.90
2023-12-20T00:46:19.971Z,12.50
2023-12-20T00:47:22.632Z,16.45
2023-12-20T00:48:25.198Z,15.00
2023-12-20T00:49:27.927Z,15.20
2023-12-20T00:50:30.830Z,15.27
2023-12-20T00:51:34.455Z,13.90
2023-12-20T00:52:37.081Z,14.10
2023-12-20T00:53:39.470Z,14.20
2023-12-20T00:54:42.725Z,10.30
2023-12-20T00:55:48.443Z,12.20
2023-12-20T00:56:51.283Z,13.50
2023-12-20T00:57:54.644Z,13.00
2023-12-20T00:58:58.049Z,12.90
2023-12-20T01:00:00.530Z,13.10
2023-12-20T01:01:03.637Z,13.70
2023-12-20T01:02:06.088Z,13.40
2023-12-20T01:03:08.529Z,15.60
2023-12-20T01:04:11.666Z,13.00
2023-12-20T01:05:16.173Z,12.60
2023-12-20T01:06:19.877Z,12.80
2023-12-20T01:07:22.216Z,11.80
2023-12-20T01:08:24.940Z,12.20
2023-12-20T01:09:28.322Z,12.70
2023-12-20T01:10:30.657Z,13.70
2023-12-20T01:11:35.399Z,12.60
2023-12-20T01:12:38.603Z,15.60
2023-12-20T01:13:41.322Z,13.10
2023-12-20T01:14:44.173Z,13.50
2023-12-20T01:15:48.879Z,13.55
2023-12-20T01:16:51.283Z,12.00
2023-12-20T01:17:53.784Z,10.90
2023-12-20T01:18:57.046Z,13.90
2023-12-20T01:19:59.964Z,12.70
2023-12-20T01:21:04.822Z,12.80
2023-12-20T01:22:07.166Z,13.30
2023-12-20T01:23:13.956Z,14.20
2023-12-20T01:24:16.922Z,14.60
2023-12-20T01:25:19.931Z,14.90
2023-12-20T01:26:23.121Z,11.50
2023-12-20T01:27:26.496Z,16.70
2023-12-20T01:28:29.408Z,14.30
2023-12-20T01:29:32.871Z,11.64
2023-12-20T01:30:36.656Z,12.80
2023-12-20T01:31:39.268Z,15.80
2023-12-20T01:32:41.645Z,14.70
2023-12-20T01:33:43.932Z,11.10
2023-12-20T01:34:46.357Z,14.82
2023-12-20T01:35:48.548Z,15.20
2023-12-20T01:36:52.055Z,12.60
2023-12-20T01:37:56.234Z,14.70
2023-12-20T01:38:58.661Z,13.30
2023-12-20T01:40:01.348Z,13.00
2023-12-20T01:41:04.441Z,14.00
2023-12-20T01:42:06.814Z,11.60
2023-12-20T01:43:10.159Z,14.00
2023-12-20T01:44:12.621Z,10.00
2023-12-20T01:45:14.854Z,13.10
2023-12-20T01:46:19.553Z,12.30
2023-12-20T01:47:22.696Z,13.60
2023-12-20T01:48:26.821Z,13.55
2023-12-20T01:49:29.507Z,13.20
2023-12-20T01:50:32.816Z,14.90
2023-12-20T01:51:36.642Z,15.60
2023-12-20T01:52:41.146Z,13.70
2023-12-20T01:53:44.805Z,14.20
2023-12-20T01:54:50.276Z,15.80
2023-12-20T01:56:00.057Z,6.50
2023-12-20T01:57:04.141Z,12.60
2023-12-20T01:58:11.099Z,12.00
2023-12-20T01:59:13.994Z,12.90
2023-12-20T02:00:19.179Z,13.00
2023-12-20T02:01:22.031Z,13.60
2023-12-20T02:02:28.175Z,12.60
2023-12-20T02:03:31.755Z,10.50
2023-12-20T02:04:35.500Z,13.50
2023-12-20T02:05:39.669Z,13.10
2023-12-20T02:06:44.880Z,5.60
2023-12-20T02:07:48.590Z,13.00
2023-12-20T02:08:51.808Z,13.40
2023-12-20T02:09:57.298Z,11.50
2023-12-20T02:11:01.052Z,12.40
2023-12-20T02:12:04.195Z,12.80
2023-12-20T02:13:06.681Z,12.10
2023-12-20T02:14:08.994Z,13.60
2023-12-20T02:15:11.360Z,11.00
2023-12-20T02:16:14.197Z,12.82
2023-12-20T02:17:17.328Z,12.20
2023-12-20T02:18:19.809Z,10.55
2023-12-20T02:19:22.232Z,13.30
2023-12-20T02:20:26.029Z,11.80
2023-12-20T02:21:37.725Z,14.20
2023-12-20T02:22:40.165Z,13.80
2023-12-20T02:23:42.622Z,8.70
2023-12-20T02:24:45.087Z,13.60
2023-12-20T02:25:47.352Z,12.80
2023-12-20T02:26:50.433Z,11.50
2023-12-20T02:27:53.120Z,13.09
2023-12-20T02:28:55.729Z,11.80
2023-12-20T02:29:59.039Z,11.40
2023-12-20T02:31:01.652Z,12.30
2023-12-20T02:32:04.599Z,9.00
2023-12-20T02:33:10.561Z,13.50
2023-12-20T02:34:13.303Z,13.70
2023-12-20T02:35:15.730Z,14.00
2023-12-20T02:36:18.592Z,13.64
2023-12-20T02:37:21.215Z,13.20
2023-12-20T02:38:23.501Z,13.30
2023-12-20T02:39:26.325Z,5.00
2023-12-20T02:40:28.804Z,12.91
2023-12-20T02:41:31.025Z,8.60
2023-12-20T02:42:33.854Z,13.20
2023-12-20T02:43:36.211Z,10.27
2023-12-20T02:44:38.401Z,11.90
2023-12-20T02:45:41.174Z,13.70
2023-12-20T02:46:43.737Z,12.18
2023-12-20T02:47:46.811Z,9.40
2023-12-20T02:48:49.542Z,9.50
2023-12-20T02:49:53.698Z,12.60
2023-12-20T02:50:58.149Z,10.00
2023-12-20T02:52:00.532Z,11.90
2023-12-20T02:53:03.487Z,7.10
2023-12-20T02:54:05.931Z,10.36
2023-12-20T02:55:08.476Z,10.70
2023-12-20T02:56:12.483Z,12.40
2023-12-20T02:57:15.394Z,10.50
2023-12-20T02:58:18.390Z,12.09
2023-12-20T02:59:20.890Z,13.27
2023-12-20T03:00:24.901Z,8.50
2023-12-20T03:01:28.209Z,12.20
2023-12-20T03:02:30.737Z,10.20
2023-12-20T03:03:33.308Z,8.60
2023-12-20T03:04:35.831Z,11.70
2023-12-20T03:05:38.194Z,11.50
2023-12-20T03:06:40.522Z,8.20
2023-12-20T03:07:44.138Z,12.10
2023-12-20T03:08:46.757Z,11.20
2023-12-20T03:10:05.295Z,10.70
2023-12-20T03:10:54.082Z,12.40
2023-12-20T03:11:56.794Z,12.55
2023-12-20T03:12:59.110Z,11.20
2023-12-20T03:14:01.727Z,10.30
2023-12-20T03:15:04.292Z,8.10
2023-12-20T03:16:10.999Z,11.60
2023-12-20T03:17:13.194Z,6.80
2023-12-20T03:18:16.049Z,10.40
2023-12-20T03:19:21.213Z,11.30
2023-12-20T03:20:24.073Z,9.80
2023-12-20T03:21:26.357Z,7.30
2023-12-20T03:22:28.699Z,10.10
2023-12-20T03:23:33.422Z,9.20
2023-12-20T03:24:35.625Z,10.70
2023-12-20T03:25:38.228Z,11.20
2023-12-20T03:26:40.765Z,9.55
2023-12-20T03:27:43.550Z,10.80
2023-12-20T03:28:46.208Z,8.91
2023-12-20T03:29:48.442Z,9.80
2023-12-20T03:30:51.122Z,10.10
2023-12-20T03:31:53.501Z,8.00
2023-12-20T03:32:56.747Z,9.60
2023-12-20T03:33:59.127Z,3.10
2023-12-20T03:35:02.289Z,7.10
2023-12-20T03:36:05.634Z,8.90
2023-12-20T03:37:08.266Z,11.18
2023-12-20T03:38:11.136Z,9.90
2023-12-20T03:39:14.555Z,7.73
2023-12-20T03:40:18.435Z,10.90
2023-12-20T03:41:20.779Z,10.10
2023-12-20T03:42:23.147Z,11.60
2023-12-20T03:43:26.016Z,11.00
2023-12-20T03:44:30.566Z,10.60
2023-12-20T03:45:32.913Z,10.60
2023-12-20T03:46:35.374Z,8.40
2023-12-20T03:47:37.770Z,9.80
2023-12-20T03:48:40.344Z,8.50
2023-12-20T03:49:42.441Z,9.20
2023-12-20T03:50:44.682Z,9.10
2023-12-20T03:51:48.056Z,12.00
2023-12-20T03:52:52.606Z,10.30
2023-12-20T03:53:55.171Z,11.20
2023-12-20T03:54:57.825Z,9.10
2023-12-20T03:56:00.332Z,12.40
2023-12-20T03:57:03.085Z,10.80
2023-12-20T03:58:05.787Z,12.10
2023-12-20T03:59:08.216Z,11.70
2023-12-20T04:00:12.318Z,11.20
2023-12-20T04:01:14.490Z,10.60
2023-12-20T04:02:18.533Z,11.30
2023-12-20T04:03:20.861Z,14.80
2023-12-20T04:04:23.156Z,11.30
2023-12-20T04:05:25.472Z,12.00
2023-12-20T04:06:28.755Z,8.70
2023-12-20T04:07:31.460Z,11.30
2023-12-20T04:08:33.735Z,10.00
2023-12-20T04:09:36.030Z,9.70
2023-12-20T04:10:38.910Z,7.10
2023-12-20T04:11:41.280Z,11.18
2023-12-20T04:12:43.458Z,10.30
2023-12-20T04:13:45.695Z,11.60
2023-12-20T04:14:47.968Z,10.70
2023-12-20T04:15:51.888Z,12.30
2023-12-20T04:16:54.897Z,10.70
2023-12-20T04:17:57.177Z,9.80
2023-12-20T04:18:59.674Z,12.30
2023-12-20T04:20:03.414Z,11.73
2023-12-20T04:21:05.977Z,11.60
2023-12-20T04:22:10.217Z,13.30
2023-12-20T04:23:12.489Z,8.50
2023-12-20T04:24:14.647Z,10.60
2023-12-20T04:25:17.273Z,12.80
2023-12-20T04:26:20.077Z,14.30
2023-12-20T04:27:22.482Z,16.40
2023-12-20T04:28:25.743Z,16.30
2023-12-20T04:29:28.648Z,16.70
2023-12-20T04:30:31.268Z,14.20
2023-12-20T04:31:35.139Z,14.20
2023-12-20T04:32:38.424Z,14.40
2023-12-20T04:33:40.697Z,12.70
2023-12-20T04:34:44.816Z,13.70
2023-12-20T04:35:49.430Z,12.40
2023-12-20T04:36:54.503Z,12.18
2023-12-20T04:37:57.079Z,12.30
2023-12-20T04:39:00.350Z,14.20
2023-12-20T04:40:03.522Z,12.70
2023-12-20T04:41:06.267Z,7.90
2023-12-20T04:42:09.046Z,11.82
2023-12-20T04:43:11.469Z,11.90
2023-12-20T04:44:14.478Z,12.40
2023-12-20T04:45:17.952Z,13.45
2023-12-20T04:46:22.136Z,12.70
2023-12-20T04:47:24.514Z,13.20
2023-12-20T04:48:27.245Z,12.20
2023-12-20T04:49:30.388Z,11.64
2023-12-20T04:50:34.945Z,15.00
2023-12-20T04:51:39.281Z,14.27
2023-12-20T04:52:41.916Z,11.90
2023-12-20T04:53:44.829Z,13.40
2023-12-20T04:54:47.661Z,11.55
2023-12-20T04:55:50.291Z,12.91
2023-12-20T04:56:52.710Z,10.10
2023-12-20T04:57:55.461Z,9.60
2023-12-20T04:58:57.760Z,13.36
2023-12-20T04:59:59.917Z,13.90
2023-12-20T05:01:02.727Z,12.80
2023-12-20T05:02:05.291Z,8.73
2023-12-20T05:03:08.304Z,9.20
2023-12-20T05:04:10.895Z,11.40
2023-12-20T05:05:15.928Z,12.40
2023-12-20T05:06:19.836Z,13.70
2023-12-20T05:07:22.042Z,12.82
2023-12-20T05:08:25.037Z,13.20
2023-12-20T05:09:27.351Z,12.91
2023-12-20T05:10:30.382Z,14.73
2023-12-20T05:11:32.529Z,13.90
2023-12-20T05:12:35.626Z,9.30
2023-12-20T05:13:45.262Z,13.90
2023-12-20T05:14:43.583Z,14.60
2023-12-20T05:15:49.316Z,14.40
2023-12-20T05:16:52.724Z,15.50
2023-12-20T05:17:55.648Z,16.00
2023-12-20T05:18:59.178Z,16.30
2023-12-20T05:20:01.898Z,19.50
2023-12-20T05:21:04.908Z,19.27
2023-12-20T05:22:07.255Z,19.36
2023-12-20T05:23:09.551Z,16.60
2023-12-20T05:24:12.093Z,16.70
2023-12-20T05:25:15.016Z,14.70
2023-12-20T05:26:18.232Z,18.30
2023-12-20T05:27:20.485Z,14.90
2023-12-20T05:28:22.895Z,17.40
2023-12-20T05:29:26.329Z,17.30
2023-12-20T05:30:30.095Z,15.40
2023-12-20T05:31:33.108Z,14.40
2023-12-20T05:32:35.816Z,16.40
2023-12-20T05:33:40.659Z,15.10
2023-12-20T05:34:43.132Z,15.40
2023-12-20T05:35:52.643Z,15.80
2023-12-20T05:37:01.362Z,16.40
2023-12-20T05:38:06.442Z,7.70
2023-12-20T05:39:09.628Z,15.80
2023-12-20T05:40:13.894Z,15.50
2023-12-20T05:41:20.835Z,15.70
2023-12-20T05:42:26.279Z,15.90
2023-12-20T05:43:28.838Z,15.50
2023-12-20T05:44:31.445Z,16.60
2023-12-20T05:45:37.248Z,14.18
2023-12-20T05:46:41.771Z,16.80
2023-12-20T05:47:47.127Z,10.70
2023-12-20T05:48:50.798Z,17.50
2023-12-20T05:49:54.066Z,11.50
2023-12-20T05:50:56.891Z,15.70
2023-12-20T05:51:59.367Z,14.20
2023-12-20T05:53:02.340Z,15.50
2023-12-20T05:54:04.931Z,17.80
2023-12-20T05:55:10.076Z,14.10
2023-12-20T05:56:13.612Z,14.90
2023-12-20T05:57:16.080Z,13.00
2023-12-20T05:58:20.018Z,17.00
2023-12-20T05:59:23.107Z,15.70
2023-12-20T06:00:26.425Z,16.45
2023-12-20T06:01:28.903Z,15.10
2023-12-20T06:02:31.589Z,11.70
2023-12-20T06:03:34.664Z,17.09
2023-12-20T06:04:37.147Z,11.73
2023-12-20T06:05:39.633Z,14.30
2023-12-20T06:06:45.814Z,15.00
2023-12-20T06:07:51.211Z,14.00
2023-12-20T06:08:53.978Z,15.30
2023-12-20T06:09:56.321Z,14.10
2023-12-20T06:10:58.744Z,15.70
2023-12-20T06:12:01.244Z,14.30
2023-12-20T06:13:05.500Z,15.70
2023-12-20T06:14:08.685Z,15.90
2023-12-20T06:15:11.333Z,10.10
2023-12-20T06:16:14.776Z,16.60
2023-12-20T06:17:16.851Z,16.80
2023-12-20T06:18:19.258Z,15.60
2023-12-20T06:19:23.943Z,11.90
2023-12-20T06:20:27.447Z,16.50
2023-12-20T06:21:29.867Z,15.50
2023-12-20T06:22:32.197Z,17.90
2023-12-20T06:23:35.041Z,15.30
2023-12-20T06:24:37.182Z,13.50
2023-12-20T06:25:41.865Z,17.10
2023-12-20T06:26:46.564Z,13.40
2023-12-20T06:27:49.473Z,14.00
2023-12-20T06:28:52.227Z,15.70
2023-12-20T06:29:54.584Z,14.20
2023-12-20T06:30:58.901Z,10.90
2023-12-20T06:32:02.011Z,13.20
2023-12-20T06:33:04.358Z,16.10
2023-12-20T06:34:06.751Z,14.10
2023-12-20T06:35:12.164Z,14.90
2023-12-20T06:36:15.975Z,16.40
2023-12-20T06:37:18.553Z,17.70
2023-12-20T06:38:21.371Z,16.73
2023-12-20T06:39:24.103Z,17.80
2023-12-20T06:40:28.602Z,17.10
2023-12-20T06:41:32.495Z,16.80
2023-12-20T06:42:46.698Z,8.60
2023-12-20T06:43:47.033Z,10.50
2023-12-20T06:44:46.439Z,17.10
2023-12-20T06:45:49.242Z,17.30
2023-12-20T06:46:54.096Z,16.30
2023-12-20T06:47:56.355Z,15.50
2023-12-20T06:48:58.805Z,15.00
2023-12-20T06:50:01.838Z,14.90
2023-12-20T06:51:04.432Z,11.64
2023-12-20T06:52:08.581Z,15.30
2023-12-20T06:53:11.359Z,16.00
2023-12-20T06:54:14.218Z,15.60
2023-12-20T06:55:17.968Z,16.27
2023-12-20T06:56:21.619Z,17.70
2023-12-20T06:57:24.004Z,15.80
2023-12-20T06:58:26.587Z,15.60
2023-12-20T06:59:28.806Z,15.90
2023-12-20T07:00:33.075Z,15.70
2023-12-20T07:01:38.595Z,12.30
2023-12-20T07:02:41.726Z,14.60
2023-12-20T07:03:44.859Z,18.20
2023-12-20T07:04:47.487Z,15.00
2023-12-20T07:05:50.796Z,19.40
2023-12-20T07:06:55.601Z,19.90
2023-12-20T07:07:58.256Z,17.00
2023-12-20T07:09:00.430Z,17.70
2023-12-20T07:10:03.173Z,17.80
2023-12-20T07:11:05.870Z,17.10
2023-12-20T07:12:09.361Z,16.80
2023-12-20T07:13:15.574Z,15.30
2023-12-20T07:14:19.703Z,14.60
2023-12-20T07:15:23.505Z,16.00
2023-12-20T07:16:26.385Z,16.70
2023-12-20T07:17:30.603Z,17.30
2023-12-20T07:18:38.475Z,16.10
2023-12-20T07:19:41.834Z,15.10
2023-12-20T07:20:44.634Z,14.50
2023-12-20T07:21:49.840Z,16.00
2023-12-20T07:22:53.881Z,14.20
2023-12-20T07:23:56.581Z,14.20
2023-12-20T07:24:59.649Z,14.30
2023-12-20T07:26:02.330Z,11.30
2023-12-20T07:27:04.985Z,14.70
2023-12-20T07:28:09.303Z,16.50
2023-12-20T07:29:11.796Z,15.80
2023-12-20T07:30:15.515Z,13.00
2023-12-20T07:31:18.379Z,13.09
2023-12-20T07:32:26.730Z,15.50
2023-12-20T07:33:38.765Z,16.10
2023-12-20T07:34:37.828Z,9.50
2023-12-20T07:35:40.396Z,14.10
2023-12-20T07:36:44.150Z,15.20
2023-12-20T07:37:48.482Z,13.80
2023-12-20T07:38:52.318Z,15.00
2023-12-20T07:39:55.560Z,14.00
2023-12-20T07:40:58.384Z,12.80
2023-12-20T07:42:01.976Z,15.00
2023-12-20T07:43:04.611Z,13.80
2023-12-20T07:44:07.483Z,14.09
2023-12-20T07:45:12.700Z,14.09
2023-12-20T07:46:16.252Z,14.70
2023-12-20T07:47:21.571Z,14.30
2023-12-20T07:48:23.720Z,14.40
2023-12-20T07:49:26.685Z,13.60
2023-12-20T07:50:29.589Z,16.40
2023-12-20T07:51:32.750Z,12.40
2023-12-20T07:52:35.583Z,14.00
2023-12-20T07:53:39.212Z,13.50
2023-12-20T07:54:41.687Z,14.50
2023-12-20T07:55:44.053Z,15.80
2023-12-20T07:56:48.115Z,15.10
2023-12-20T07:57:50.562Z,16.00
2023-12-20T07:58:54.004Z,15.00
2023-12-20T07:59:57.074Z,15.70
2023-12-20T08:01:00.380Z,13.36
2023-12-20T08:02:03.970Z,15.80
2023-12-20T08:03:06.796Z,15.90
2023-12-20T08:04:09.335Z,14.30
2023-12-20T08:05:11.721Z,12.00
2023-12-20T08:06:14.839Z,15.50
2023-12-20T08:07:18.268Z,16.10
2023-12-20T08:08:20.579Z,13.60
2023-12-20T08:09:22.740Z,16.00
2023-12-20T08:10:26.269Z,15.55
2023-12-20T08:11:29.197Z,16.80
2023-12-20T08:12:31.862Z,14.90
2023-12-20T08:13:35.197Z,15.80
2023-12-20T08:14:38.197Z,16.50
2023-12-20T08:15:41.014Z,16.18
2023-12-20T08:16:46.751Z,14.60
2023-12-20T08:17:49.841Z,15.50
2023-12-20T08:18:54.248Z,14.10
2023-12-20T08:19:56.824Z,16.60
2023-12-20T08:20:59.572Z,17.91
2023-12-20T08:22:02.245Z,17.10
2023-12-20T08:23:05.023Z,11.80
2023-12-20T08:24:07.883Z,14.20
2023-12-20T08:25:10.041Z,16.27
2023-12-20T08:26:13.335Z,15.80
2023-12-20T08:27:15.871Z,15.60
2023-12-20T08:28:18.229Z,15.70
2023-12-20T08:29:21.582Z,15.80
2023-12-20T08:30:25.993Z,16.70
2023-12-20T08:31:28.670Z,16.50
2023-12-20T08:32:31.013Z,13.70
2023-12-20T08:33:33.685Z,17.00
2023-12-20T08:34:36.001Z,17.80
2023-12-20T08:35:40.619Z,16.30
2023-12-20T08:36:45.453Z,17.00
2023-12-20T08:37:48.157Z,14.00
2023-12-20T08:38:51.388Z,12.30
2023-12-20T08:39:53.661Z,17.40
2023-12-20T08:40:56.182Z,19.00
2023-12-20T08:41:59.525Z,18.40
2023-12-20T08:43:02.456Z,16.00
2023-12-20T08:44:05.090Z,18.64
2023-12-20T08:45:08.692Z,17.50
2023-12-20T08:46:13.386Z,16.70
2023-12-20T08:47:16.629Z,17.70
2023-12-20T08:48:19.258Z,18.00
2023-12-20T08:49:21.790Z,14.18
2023-12-20T08:50:25.927Z,18.30
2023-12-20T08:51:28.505Z,17.20
2023-12-20T08:52:31.101Z,19.30
2023-12-20T08:53:34.769Z,15.40
2023-12-20T08:54:37.314Z,17.70
2023-12-20T08:55:39.647Z,17.90
2023-12-20T08:56:42.637Z,16.20
2023-12-20T08:57:46.110Z,17.00
2023-12-20T08:58:49.621Z,16.80
2023-12-20T08:59:52.074Z,17.40
2023-12-20T09:00:54.673Z,12.80
2023-12-20T09:01:57.315Z,14.10
2023-12-20T09:03:00.175Z,17.45
2023-12-20T09:04:03.413Z,17.20
2023-12-20T09:05:07.413Z,18.10
2023-12-20T09:06:11.247Z,15.10
2023-12-20T09:07:28.976Z,15.70
2023-12-20T09:08:32.240Z,15.20
2023-12-20T09:09:34.742Z,14.27
2023-12-20T09:10:38.670Z,14.80
2023-12-20T09:11:41.806Z,13.00
2023-12-20T09:12:45.285Z,13.10
2023-12-20T09:13:48.354Z,12.90
2023-12-20T09:14:52.592Z,14.50
2023-12-20T09:15:57.608Z,13.80
2023-12-20T09:17:02.760Z,15.30
2023-12-20T09:18:06.222Z,16.30
2023-12-20T09:19:08.832Z,16.00
2023-12-20T09:20:18.846Z,17.20
2023-12-20T09:21:21.164Z,12.90
2023-12-20T09:22:23.808Z,14.80
2023-12-20T09:23:27.344Z,16.27
2023-12-20T09:24:29.456Z,17.40
2023-12-20T09:25:31.668Z,17.44
2023-12-20T09:26:33.863Z,15.20
2023-12-20T09:27:36.082Z,15.90
2023-12-20T09:28:39.404Z,14.70
2023-12-20T09:29:42.326Z,15.10
2023-12-20T09:30:47.636Z,14.91
2023-12-20T09:31:51.699Z,16.70
2023-12-20T09:32:55.890Z,13.00
2023-12-20T09:33:59.393Z,14.20
2023-12-20T09:35:04.056Z,15.40
2023-12-20T09:36:07.224Z,14.30
2023-12-20T09:37:10.217Z,12.91
2023-12-20T09:38:13.793Z,13.09
2023-12-20T09:39:21.040Z,12.30
2023-12-20T09:40:27.782Z,11.60
2023-12-20T09:41:39.411Z,13.80
2023-12-20T09:42:51.356Z,13.20
2023-12-20T09:43:57.313Z,9.40
2023-12-20T09:45:05.941Z,10.30
2023-12-20T09:46:15.111Z,8.30
2023-12-20T09:47:21.523Z,12.30
2023-12-20T09:48:27.778Z,10.50
2023-12-20T09:49:31.854Z,12.00
2023-12-20T09:50:34.695Z,10.50
2023-12-20T09:51:37.451Z,7.80
2023-12-20T09:52:41.496Z,12.20
2023-12-20T09:53:45.271Z,15.70
2023-12-20T09:54:50.794Z,13.10
2023-12-20T09:55:53.910Z,11.20
2023-12-20T09:56:56.463Z,16.90
2023-12-20T09:57:59.945Z,14.60
2023-12-20T09:59:02.664Z,18.60
2023-12-20T10:00:07.379Z,18.27
2023-12-20T10:01:12.113Z,15.00
2023-12-20T10:02:17.536Z,12.30
2023-12-20T10:03:25.959Z,12.90
2023-12-20T10:04:31.101Z,13.50
2023-12-20T10:05:35.307Z,15.50
2023-12-20T10:06:45.538Z,15.70
2023-12-20T10:07:50.237Z,21.80
2023-12-20T10:08:54.177Z,13.60
2023-12-20T10:09:57.616Z,17.90
2023-12-20T10:11:05.575Z,15.80
2023-12-20T10:12:08.013Z,15.60
2023-12-20T10:13:12.450Z,18.60
2023-12-20T10:14:14.934Z,14.60
2023-12-20T10:15:17.481Z,17.60
2023-12-20T10:16:24.373Z,14.00
2023-12-20T10:17:30.391Z,11.50
2023-12-20T10:18:38.290Z,16.90
2023-12-20T10:19:38.305Z,14.00
2023-12-20T10:20:43.427Z,14.80
2023-12-20T10:21:46.973Z,11.60
2023-12-20T10:22:50.121Z,13.70
2023-12-20T10:23:53.080Z,14.36
2023-12-20T10:24:57.374Z,12.18
2023-12-20T10:26:00.474Z,13.10
2023-12-20T10:27:04.837Z,14.00
2023-12-20T10:28:12.845Z,14.50
2023-12-20T10:29:15.434Z,14.80
2023-12-20T10:30:19.282Z,13.50
2023-12-20T10:31:29.485Z,16.60
2023-12-20T10:32:32.330Z,16.30
2023-12-20T10:33:36.115Z,12.10
2023-12-20T10:34:38.543Z,13.30
2023-12-20T10:35:44.919Z,12.80
2023-12-20T10:36:46.727Z,9.00
2023-12-20T10:37:48.988Z,9.80
2023-12-20T10:38:53.869Z,10.70
2023-12-20T10:39:56.997Z,13.40
2023-12-20T10:41:00.190Z,10.80
2023-12-20T10:42:05.631Z,9.50
2023-12-20T10:43:10.862Z,12.90
2023-12-20T10:44:14.657Z,12.30
2023-12-20T10:45:17.774Z,8.90
2023-12-20T10:46:20.951Z,11.20
2023-12-20T10:47:27.522Z,10.40
2023-12-20T10:48:32.986Z,11.90
2023-12-20T10:49:39.375Z,10.40
2023-12-20T10:50:42.525Z,10.30
2023-12-20T10:51:48.864Z,11.27
2023-12-20T10:52:53.607Z,10.90
2023-12-20T10:53:57.135Z,10.80
2023-12-20T10:55:00.347Z,10.70
2023-12-20T10:56:04.383Z,11.30
2023-12-20T10:57:07.426Z,7.60
2023-12-20T10:58:10.819Z,10.40
2023-12-20T10:59:16.913Z,11.40
2023-12-20T11:00:22.700Z,9.70
2023-12-20T11:01:25.996Z,9.70
2023-12-20T11:02:30.064Z,11.10
2023-12-20T11:03:36.447Z,7.60
2023-12-20T11:04:48.801Z,8.90
2023-12-20T11:06:00.846Z,11.50
2023-12-20T11:07:06.825Z,9.80
2023-12-20T11:08:16.923Z,11.10
2023-12-20T11:09:31.710Z,9.10
2023-12-20T11:10:42.835Z,9.90
2023-12-20T11:11:54.816Z,9.60
2023-12-20T11:13:01.234Z,11.00
2023-12-20T11:14:07.162Z,8.70
2023-12-20T11:15:11.456Z,10.30
2023-12-20T11:16:15.568Z,10.10
2023-12-20T11:17:18.760Z,11.30
2023-12-20T11:18:23.218Z,9.20
2023-12-20T11:19:25.703Z,12.00
2023-12-20T11:20:40.135Z,9.20
2023-12-20T11:21:43.639Z,9.90
2023-12-20T11:22:57.017Z,9.10
2023-12-20T11:24:01.066Z,10.10
2023-12-20T11:25:09.709Z,10.00
2023-12-20T11:26:14.207Z,9.40
2023-12-20T11:27:16.713Z,17.30
2023-12-20T11:28:25.320Z,11.90
2023-12-20T11:29:34.240Z,12.40
2023-12-20T11:30:51.164Z,11.30
2023-12-20T11:31:56.409Z,9.90
2023-12-20T11:32:59.831Z,9.50
2023-12-20T11:34:18.779Z,10.30
2023-12-20T11:35:21.974Z,9.60
2023-12-20T11:36:27.589Z,8.40
2023-12-20T11:37:42.039Z,9.80
2023-12-20T11:39:00.165Z,11.10
2023-12-20T11:40:10.198Z,9.00
2023-12-20T11:41:12.521Z,8.60
2023-12-20T11:42:17.204Z,6.80
2023-12-20T11:43:35.512Z,6.30
2023-12-20T11:44:38.060Z,8.30
2023-12-20T11:45:52.950Z,8.90
2023-12-20T11:46:55.973Z,9.20
2023-12-20T11:47:58.671Z,3.73
2023-12-20T11:49:01.901Z,8.70
2023-12-20T11:50:06.022Z,6.80
2023-12-20T11:51:15.150Z,11.00
2023-12-20T11:52:18.006Z,10.60
2023-12-20T11:53:21.851Z,8.82
2023-12-20T11:54:24.671Z,4.70
2023-12-20T11:55:27.187Z,10.64
2023-12-20T11:56:29.662Z,8.60
2023-12-20T11:57:33.029Z,8.80
2023-12-20T11:58:37.509Z,9.30
2023-12-20T11:59:40.294Z,9.50
2023-12-20T12:00:44.822Z,8.91
2023-12-20T12:01:51.384Z,8.30
2023-12-20T12:03:00.826Z,9.90
2023-12-20T12:04:06.825Z,10.10
2023-12-20T12:05:09.990Z,9.80
2023-12-20T12:06:15.387Z,9.00
2023-12-20T12:07:22.391Z,10.20
2023-12-20T12:08:26.443Z,8.90
2023-12-20T12:09:29.088Z,10.50
2023-12-20T12:10:32.736Z,10.80
2023-12-20T12:11:35.748Z,11.90
2023-12-20T12:12:38.694Z,9.50
2023-12-20T12:13:44.360Z,9.09
2023-12-20T12:14:46.816Z,3.80
2023-12-20T12:15:52.073Z,11.70
2023-12-20T12:16:55.202Z,8.20
2023-12-20T12:17:58.245Z,10.90
2023-12-20T12:19:01.764Z,11.60
2023-12-20T12:20:07.063Z,10.00
2023-12-20T12:21:15.599Z,10.40
2023-12-20T12:22:19.620Z,10.60
2023-12-20T12:23:26.373Z,10.90
2023-12-20T12:24:29.285Z,11.50
2023-12-20T12:25:42.819Z,9.80
2023-12-20T12:26:48.264Z,12.40
2023-12-20T12:27:52.328Z,10.50
2023-12-20T12:28:55.590Z,10.60
2023-12-20T12:30:04.493Z,9.70
2023-12-20T12:31:08.280Z,12.50
2023-12-20T12:32:11.798Z,12.40
2023-12-20T12:33:14.531Z,12.80
2023-12-20T12:34:18.488Z,11.50
2023-12-20T12:35:21.259Z,4.00
2023-12-20T12:36:27.501Z,13.20
2023-12-20T12:37:30.688Z,13.00
2023-12-20T12:38:34.601Z,10.20
2023-12-20T12:39:42.054Z,12.20
2023-12-20T12:40:53.309Z,13.10
2023-12-20T12:41:55.584Z,9.90
2023-12-20T12:43:01.692Z,12.00
2023-12-20T12:44:11.801Z,11.60
2023-12-20T12:45:08.989Z,6.10
2023-12-20T12:46:13.898Z,13.00
2023-12-20T12:47:16.852Z,10.80
2023-12-20T12:48:20.850Z,12.45
2023-12-20T12:49:24.172Z,13.40
2023-12-20T12:50:29.990Z,12.30
2023-12-20T12:51:32.474Z,13.00
2023-12-20T12:52:38.135Z,8.90
2023-12-20T12:53:41.312Z,15.50
2023-12-20T12:54:45.995Z,11.90
2023-12-20T12:55:49.175Z,14.70
2023-12-20T12:56:53.518Z,12.90
2023-12-20T12:57:55.842Z,16.00
2023-12-20T12:58:58.450Z,15.90
2023-12-20T13:00:02.006Z,13.00
2023-12-20T13:01:05.965Z,17.70
2023-12-20T13:02:12.405Z,17.90
2023-12-20T13:03:15.294Z,13.30
2023-12-20T13:04:17.619Z,13.00
2023-12-20T13:05:20.239Z,14.20
2023-12-20T13:06:23.727Z,14.80
2023-12-20T13:07:26.073Z,16.45
2023-12-20T13:08:30.026Z,14.40
2023-12-20T13:09:33.498Z,17.40
2023-12-20T13:10:36.045Z,9.00
2023-12-20T13:11:38.629Z,14.50
2023-12-20T13:12:40.672Z,13.10
2023-12-20T13:13:43.075Z,11.80
2023-12-20T13:14:49.191Z,12.30
2023-12-20T13:15:53.921Z,13.20
2023-12-20T13:16:56.565Z,11.90
2023-12-20T13:17:59.477Z,12.40
2023-12-20T13:19:02.086Z,11.80
2023-12-20T13:20:05.867Z,12.64
2023-12-20T13:21:08.427Z,12.20
2023-12-20T13:22:10.577Z,12.00
2023-12-20T13:23:14.127Z,10.60
2023-12-20T13:24:16.537Z,13.00
2023-12-20T13:25:18.971Z,12.00
2023-12-20T13:26:25.343Z,12.60
2023-12-20T13:27:28.336Z,12.40
2023-12-20T13:28:30.751Z,12.00
2023-12-20T13:29:33.333Z,14.10
2023-12-20T13:30:37.649Z,14.90
2023-12-20T13:31:41.116Z,8.50
2023-12-20T13:32:44.065Z,13.00
2023-12-20T13:33:47.154Z,9.45
2023-12-20T13:34:50.924Z,15.55
2023-12-20T13:35:53.828Z,14.70
2023-12-20T13:36:58.363Z,15.20
2023-12-20T13:38:01.501Z,12.40
2023-12-20T13:39:05.595Z,11.80
2023-12-20T13:40:11.591Z,15.80
2023-12-20T13:41:13.843Z,11.90
2023-12-20T13:42:16.221Z,13.80
2023-12-20T13:43:20.714Z,15.30
2023-12-20T13:44:23.092Z,14.90
2023-12-20T13:45:25.999Z,14.60